Airport ID:KMHV
Update Time (UTC):24/04/2019 06:50
Wind Speed (Knots):12
Wind Direction (Magnetic):290
Temperature (°C):21
Dew Point (°C):0
Humidity (%):24
Altimeter (inHg):30
Density Altitude (Feet):4100
Visibility (Miles):10+
Clouds (Hundreds of feet):CLR
Present Weather:
METAR:METAR KMHV 240640Z AUTO 30011G17KT 10SM CLR 21/M00 A3000 RMK A01

The data displayed is for advisory purposes only and is not to be used for flight planning or operations.

This page is not automatically refreshed. Reload the page to see current data.